Time;durP1;ratioP1;P1;durP2;ratioP2;P2;SDS_P1;SDS_P2;PMS_P1;PMS_P2;Temp;Humidity;BMP_temperature;BMP_pressure;BME280_temperature;BME280_humidity;BME280_pressure;Samples;Min_cycle;Max_cycle;Signal;HPM_P1;HPM_P2
2022/12/04 00:00:35;;;;;;;80.40;18.92;;;;;;;;;;4982218;28;20050;-68
2022/12/04 00:03:01;;;;;;;97.10;19.38;;;;;;;;;;4982735;28;20084;-68
2022/12/04 00:05:26;;;;;;;98.90;16.17;;;;;;;;;;4983418;28;20041;-68
2022/12/04 00:07:52;;;;;;;125.63;19.42;;;;;;;;;;4983310;28;20062;-67
2022/12/04 00:10:17;;;;;;;103.50;17.40;;;;;;;;;;4982166;28;20077;-68
2022/12/04 00:12:42;;;;;;;67.53;16.63;;;;;;;;;;4983185;28;20054;-68
2022/12/04 00:15:08;;;;;;;45.85;11.90;;;;;;;;;;4982484;28;20077;-68
2022/12/04 00:17:34;;;;;;;103.18;18.70;;;;;;;;;;4983378;28;20522;-67
2022/12/04 00:19:59;;;;;;;74.40;15.55;;;;;;;;;;4981375;28;20530;-68
2022/12/04 00:22:25;;;;;;;126.80;21.75;;;;;;;;;;4982130;28;20076;-68
2022/12/04 00:24:50;;;;;;;102.65;19.77;;;;;;;;;;4982320;28;20141;-69
2022/12/04 00:27:16;;;;;;;195.55;21.13;;;;;;;;;;4983585;28;20050;-68
2022/12/04 00:29:41;;;;;;;81.03;17.73;;;;;;;;;;4981562;28;20065;-68
2022/12/04 00:32:06;;;;;;;108.70;18.88;;;;;;;;;;4982600;28;20486;-68
2022/12/04 00:34:32;;;;;;;78.60;18.40;;;;;;;;;;4980943;28;20074;-68
2022/12/04 00:36:57;;;;;;;81.05;20.27;;;;;;;;;;4980898;28;20042;-68
2022/12/04 00:39:23;;;;;;;88.30;17.20;;;;;;;;;;4982976;28;20654;-68
2022/12/04 00:41:48;;;;;;;108.38;18.00;;;;;;;;;;4982230;28;20054;-67
2022/12/04 00:44:13;;;;;;;135.95;19.50;;;;;;;;;;4981977;28;20569;-67
2022/12/04 00:46:39;;;;;;;116.22;18.05;;;;;;;;;;4982324;28;21155;-68
2022/12/04 00:49:04;;;;;;;113.75;15.63;;;;;;;;;;4981987;28;20042;-68
2022/12/04 00:51:30;;;;;;;77.00;18.08;;;;;;;;;;4982343;28;20867;-68
2022/12/04 00:53:55;;;;;;;64.95;12.88;;;;;;;;;;4982787;28;20042;-67
2022/12/04 00:56:26;;;;;;;112.22;11.75;;;;;;;;;;4981436;28;20050;-67
2022/12/04 00:58:53;;;;;;;95.70;15.90;;;;;;;;;;4981494;28;20499;-69
2022/12/04 01:01:20;;;;;;;102.20;14.40;;;;;;;;;;4981955;28;20066;-68
2022/12/04 01:03:47;;;;;;;133.98;17.95;;;;;;;;;;4982407;28;20443;-67
2022/12/04 01:06:27;;;;;;;76.50;17.38;;;;;;;;;;4981111;28;20070;-67
2022/12/04 01:08:54;;;;;;;155.23;18.08;;;;;;;;;;4981459;28;20561;-69
2022/12/04 01:11:22;;;;;;;130.07;18.52;;;;;;;;;;4981951;28;20058;-68
2022/12/04 01:13:48;;;;;;;155.00;20.55;;;;;;;;;;4981693;28;20058;-68
2022/12/04 01:16:30;;;;;;;89.80;17.70;;;;;;;;;;4979393;28;20093;-67
2022/12/04 01:18:56;;;;;;;53.85;12.35;;;;;;;;;;4979762;28;20442;-68
2022/12/04 01:21:22;;;;;;;141.80;20.25;;;;;;;;;;4978846;28;20097;-68
2022/12/04 01:23:47;;;;;;;115.72;19.73;;;;;;;;;;4980421;28;20551;-67
2022/12/04 01:26:13;;;;;;;120.55;19.80;;;;;;;;;;4980887;28;20058;-67
2022/12/04 01:28:39;;;;;;;170.82;22.83;;;;;;;;;;4982079;28;20050;-68
2022/12/04 01:31:06;;;;;;;210.73;25.38;;;;;;;;;;4980522;28;20145;-68
2022/12/04 01:33:32;;;;;;;191.02;21.42;;;;;;;;;;4981714;28;20169;-68
2022/12/04 01:35:59;;;;;;;153.60;21.52;;;;;;;;;;4980917;28;20078;-68
2022/12/04 01:38:25;;;;;;;158.57;22.33;;;;;;;;;;4981656;28;20046;-68
2022/12/04 01:40:52;;;;;;;222.95;25.60;;;;;;;;;;4981000;28;20056;-69
2022/12/04 01:43:18;;;;;;;98.60;16.42;;;;;;;;;;4980550;28;20078;-68
2022/12/04 01:45:49;;;;;;;189.18;25.02;;;;;;;;;;4994985;28;20050;-67
2022/12/04 01:48:17;;;;;;;163.23;20.70;;;;;;;;;;4981299;28;20058;-68
2022/12/04 01:50:44;;;;;;;148.18;23.00;;;;;;;;;;4981192;28;20097;-68
2022/12/04 01:53:10;;;;;;;144.77;20.33;;;;;;;;;;4981184;28;20057;-68
2022/12/04 01:55:36;;;;;;;103.50;20.45;;;;;;;;;;4981517;28;20054;-68
2022/12/04 01:58:02;;;;;;;137.88;21.73;;;;;;;;;;4980585;28;20670;-68
2022/12/04 02:00:28;;;;;;;101.15;21.58;;;;;;;;;;4981056;28;20058;-68
2022/12/04 02:02:54;;;;;;;197.13;22.45;;;;;;;;;;4980867;28;20128;-69
2022/12/04 02:05:21;;;;;;;129.65;21.83;;;;;;;;;;4981504;28;20042;-68
2022/12/04 02:07:51;;;;;;;157.15;25.02;;;;;;;;;;4980135;28;20073;-68
2022/12/04 02:10:23;;;;;;;91.28;18.80;;;;;;;;;;4980920;28;20046;-68
2022/12/04 02:13:03;;;;;;;116.72;21.25;;;;;;;;;;4980815;28;20042;-68
2022/12/04 02:15:38;;;;;;;85.20;19.10;;;;;;;;;;4978753;28;20046;-68
2022/12/04 02:18:31;;;;;;;72.35;17.92;;;;;;;;;;4981186;28;20421;-67
2022/12/04 02:21:11;;;;;;;80.10;17.88;;;;;;;;;;4978533;28;20141;-68
2022/12/04 02:23:52;;;;;;;110.20;14.85;;;;;;;;;;4996228;28;20701;-68
2022/12/04 02:26:32;;;;;;;118.25;18.83;;;;;;;;;;4981259;28;20410;-67
2022/12/04 02:29:23;;;;;;;146.85;21.42;;;;;;;;;;4977195;28;20046;-68
2022/12/04 02:32:00;;;;;;;94.25;18.80;;;;;;;;;;4974942;28;20061;-68
2022/12/04 02:34:36;;;;;;;144.88;23.38;;;;;;;;;;4981084;28;20074;-68
2022/12/04 02:37:13;;;;;;;125.78;22.15;;;;;;;;;;4980367;28;20145;-68
2022/12/04 02:39:40;;;;;;;109.45;21.75;;;;;;;;;;4980948;28;20129;-68
2022/12/04 02:42:15;;;;;;;90.97;19.50;;;;;;;;;;4979982;28;20116;-68
2022/12/04 02:44:52;;;;;;;119.60;21.08;;;;;;;;;;4980563;28;20046;-69
2022/12/04 02:47:21;;;;;;;117.32;21.63;;;;;;;;;;4980198;28;20065;-68
2022/12/04 02:49:51;;;;;;;114.43;18.17;;;;;;;;;;4981121;28;20047;-68
2022/12/04 02:52:23;;;;;;;248.25;22.50;;;;;;;;;;4979629;28;20050;-68
2022/12/04 02:54:56;;;;;;;154.13;24.38;;;;;;;;;;4980675;28;20058;-68
2022/12/04 02:57:27;;;;;;;149.85;21.92;;;;;;;;;;4980911;28;20107;-68
2022/12/04 02:59:55;;;;;;;88.90;19.77;;;;;;;;;;4981057;28;20086;-68
2022/12/04 03:02:29;;;;;;;83.40;16.15;;;;;;;;;;4979265;28;20758;-68
2022/12/04 03:04:59;;;;;;;100.50;19.98;;;;;;;;;;4980258;28;20149;-68
2022/12/04 03:07:52;;;;;;;71.32;17.92;;;;;;;;;;4980749;28;20138;-68
2022/12/04 03:10:26;;;;;;;117.35;18.63;;;;;;;;;;4995604;28;20042;-68
2022/12/04 03:13:06;;;;;;;185.90;21.23;;;;;;;;;;4995121;28;20416;-72
2022/12/04 03:15:41;;;;;;;58.58;18.15;;;;;;;;;;4980677;28;20511;-68
2022/12/04 03:18:21;;;;;;;67.20;16.02;;;;;;;;;;4980523;28;20046;-68
2022/12/04 03:20:50;;;;;;;133.48;18.58;;;;;;;;;;4983297;28;20046;-68
2022/12/04 03:23:21;;;;;;;136.90;19.98;;;;;;;;;;4983630;28;20518;-68
2022/12/04 03:26:12;;;;;;;86.77;17.93;;;;;;;;;;4983076;28;20050;-68
2022/12/04 03:28:56;;;;;;;129.03;19.50;;;;;;;;;;4979664;28;20061;-68
2022/12/04 03:31:38;;;;;;;123.13;17.25;;;;;;;;;;4983383;28;20296;-68
2022/12/04 03:34:06;;;;;;;129.43;16.77;;;;;;;;;;4983953;28;20046;-68
2022/12/04 03:36:36;;;;;;;145.48;19.55;;;;;;;;;;4981729;28;20054;-68
2022/12/04 03:39:26;;;;;;;156.75;18.92;;;;;;;;;;4983222;28;20050;-68
2022/12/04 03:42:07;;;;;;;129.50;18.23;;;;;;;;;;4983414;28;20057;-68
2022/12/04 03:44:46;;;;;;;114.55;17.67;;;;;;;;;;4983956;28;20108;-67
2022/12/04 03:47:34;;;;;;;82.70;15.93;;;;;;;;;;4982070;28;20109;-68
2022/12/04 03:50:31;;;;;;;83.32;16.02;;;;;;;;;;4983520;28;20086;-68
2022/12/04 03:53:17;;;;;;;97.13;16.05;;;;;;;;;;4972371;28;20517;-68
2022/12/04 03:55:45;;;;;;;50.00;12.27;;;;;;;;;;4982309;28;20105;-67
2022/12/04 03:58:17;;;;;;;104.82;16.33;;;;;;;;;;4982942;28;20570;-68
2022/12/04 04:00:43;;;;;;;112.80;19.08;;;;;;;;;;4982890;28;20511;-67
2022/12/04 04:03:27;;;;;;;159.63;18.65;;;;;;;;;;4981976;28;20054;-68
2022/12/04 04:05:58;;;;;;;73.55;14.50;;;;;;;;;;4983356;28;20065;-67
2022/12/04 04:08:32;;;;;;;132.95;16.27;;;;;;;;;;4997322;28;20088;-68
2022/12/04 04:11:09;;;;;;;124.90;16.83;;;;;;;;;;4981618;28;20050;-68
2022/12/04 04:24:57;;;;;;;113.78;15.48;;;;;;;;;;4982947;28;20460;-68
2022/12/04 04:27:22;;;;;;;71.93;14.90;;;;;;;;;;4980582;28;20133;-68
2022/12/04 04:29:49;;;;;;;139.90;17.23;;;;;;;;;;4981381;28;21089;-68
2022/12/04 04:32:24;;;;;;;135.15;15.13;;;;;;;;;;4980581;28;20054;-68
2022/12/04 04:35:19;;;;;;;82.82;14.95;;;;;;;;;;4982718;28;20046;-68
2022/12/04 04:38:04;;;;;;;92.45;15.52;;;;;;;;;;4980641;28;20255;-68
2022/12/04 04:40:34;;;;;;;106.15;16.50;;;;;;;;;;4981141;28;21059;-68
2022/12/04 04:43:11;;;;;;;132.60;15.43;;;;;;;;;;4980674;28;20049;-68
2022/12/04 04:45:46;;;;;;;99.20;16.35;;;;;;;;;;4982406;28;20046;-68
2022/12/04 04:48:21;;;;;;;139.38;17.42;;;;;;;;;;4983066;28;20046;-68
2022/12/04 04:50:48;;;;;;;100.63;15.23;;;;;;;;;;4982740;28;20046;-68
2022/12/04 04:53:25;;;;;;;119.00;16.58;;;;;;;;;;4981506;28;20042;-68
2022/12/04 04:55:51;;;;;;;97.32;14.35;;;;;;;;;;4982322;28;20052;-67
2022/12/04 04:58:19;;;;;;;94.95;14.82;;;;;;;;;;4982438;28;20042;-67
2022/12/04 05:00:58;;;;;;;168.15;17.85;;;;;;;;;;4981568;28;20427;-67
2022/12/04 05:03:24;;;;;;;138.80;17.73;;;;;;;;;;4980762;28;20108;-68
2022/12/04 05:05:50;;;;;;;107.20;15.10;;;;;;;;;;4982250;28;20073;-68
2022/12/04 05:08:15;;;;;;;89.22;14.52;;;;;;;;;;4981943;28;20068;-68
2022/12/04 05:10:41;;;;;;;94.07;14.73;;;;;;;;;;4982068;28;20926;-67
2022/12/04 05:13:07;;;;;;;120.20;14.20;;;;;;;;;;4981593;28;20058;-68
2022/12/04 05:15:33;;;;;;;170.00;15.70;;;;;;;;;;4981128;28;20061;-68
2022/12/04 05:17:58;;;;;;;135.63;15.70;;;;;;;;;;4981960;28;20046;-68
2022/12/04 05:20:24;;;;;;;151.68;15.77;;;;;;;;;;4982011;28;20657;-68
2022/12/04 05:22:49;;;;;;;236.10;17.42;;;;;;;;;;4981589;28;20046;-68
2022/12/04 05:25:14;;;;;;;192.02;16.48;;;;;;;;;;4980772;28;20050;-67
2022/12/04 05:27:40;;;;;;;164.85;14.82;;;;;;;;;;4981602;28;20065;-68
2022/12/04 05:30:06;;;;;;;162.23;16.45;;;;;;;;;;4981660;28;20057;-68
2022/12/04 05:32:32;;;;;;;163.82;17.15;;;;;;;;;;4981625;28;20063;-67
2022/12/04 05:34:57;;;;;;;125.38;14.30;;;;;;;;;;4980913;28;20051;-68
2022/12/04 05:37:23;;;;;;;89.95;15.93;;;;;;;;;;4980985;28;20050;-68
2022/12/04 05:39:49;;;;;;;100.63;14.95;;;;;;;;;;4981524;28;20108;-68
2022/12/04 05:42:15;;;;;;;117.13;14.77;;;;;;;;;;4996218;28;20062;-67
2022/12/04 05:44:40;;;;;;;107.00;16.17;;;;;;;;;;4981427;28;20053;-68
2022/12/04 05:47:06;;;;;;;57.72;15.30;;;;;;;;;;4980360;28;20070;-68
2022/12/04 05:49:33;;;;;;;154.98;17.10;;;;;;;;;;4981197;28;20057;-68
2022/12/04 05:51:59;;;;;;;113.00;16.35;;;;;;;;;;4980938;28;20137;-68
2022/12/04 05:54:25;;;;;;;126.65;16.50;;;;;;;;;;4981593;28;20526;-68
2022/12/04 05:56:50;;;;;;;106.03;15.18;;;;;;;;;;4981389;28;20046;-67
2022/12/04 05:59:17;;;;;;;133.63;16.38;;;;;;;;;;4979817;28;20054;-67
2022/12/04 06:01:43;;;;;;;116.72;15.82;;;;;;;;;;4980738;28;20045;-68
2022/12/04 06:04:09;;;;;;;39.28;14.68;;;;;;;;;;4981431;28;20065;-67
2022/12/04 06:06:35;;;;;;;47.72;14.75;;;;;;;;;;4981117;28;20058;-68
2022/12/04 06:09:01;;;;;;;147.82;16.75;;;;;;;;;;4980606;28;20046;-68
2022/12/04 06:11:32;;;;;;;114.32;13.65;;;;;;;;;;4980069;28;20073;-68
2022/12/04 06:14:00;;;;;;;112.07;16.23;;;;;;;;;;4981383;28;20508;-67
2022/12/04 06:16:30;;;;;;;63.20;15.20;;;;;;;;;;4978722;28;20290;-67
2022/12/04 06:19:00;;;;;;;123.15;15.20;;;;;;;;;;4977994;28;20109;-67
2022/12/04 06:21:28;;;;;;;77.22;13.68;;;;;;;;;;4976234;28;20042;-68
2022/12/04 06:23:54;;;;;;;59.05;8.75;;;;;;;;;;4980498;28;20133;-69
2022/12/04 06:26:20;;;;;;;81.75;12.95;;;;;;;;;;4979654;28;20121;-68
2022/12/04 06:28:46;;;;;;;97.70;12.30;;;;;;;;;;4979826;28;20653;-68
2022/12/04 06:31:14;;;;;;;51.80;13.70;;;;;;;;;;4993477;28;20064;-67
2022/12/04 06:33:40;;;;;;;64.35;12.63;;;;;;;;;;4979821;28;20038;-67
2022/12/04 06:36:09;;;;;;;45.33;12.48;;;;;;;;;;4979837;28;20185;-67
2022/12/04 06:38:35;;;;;;;59.00;13.30;;;;;;;;;;4979512;28;20046;-68
2022/12/04 06:41:05;;;;;;;66.07;14.00;;;;;;;;;;4978958;28;20050;-68
2022/12/04 06:43:32;;;;;;;81.82;15.48;;;;;;;;;;4979332;28;20062;-68
2022/12/04 06:46:05;;;;;;;58.33;17.75;;;;;;;;;;4980364;28;20046;-68
2022/12/04 06:48:31;;;;;;;68.07;16.85;;;;;;;;;;4979758;28;20190;-68
2022/12/04 06:51:03;;;;;;;79.45;19.67;;;;;;;;;;4978241;28;20046;-68
2022/12/04 06:53:29;;;;;;;107.30;15.23;;;;;;;;;;4980104;28;20165;-69
2022/12/04 06:55:56;;;;;;;100.20;17.92;;;;;;;;;;4983804;28;20081;-69
2022/12/04 06:58:22;;;;;;;58.08;13.43;;;;;;;;;;4980589;28;20050;-69
2022/12/04 07:00:47;;;;;;;60.97;14.32;;;;;;;;;;4981807;28;20060;-69
2022/12/04 07:03:13;;;;;;;69.60;13.75;;;;;;;;;;4996904;28;20999;-68
2022/12/04 07:05:38;;;;;;;47.38;11.30;;;;;;;;;;4981416;28;20392;-68
2022/12/04 07:08:04;;;;;;;80.32;14.60;;;;;;;;;;4982170;28;20058;-68
2022/12/04 07:10:29;;;;;;;68.95;14.07;;;;;;;;;;4982394;28;20050;-68
2022/12/04 07:12:55;;;;;;;91.10;15.60;;;;;;;;;;4981173;28;20128;-69
2022/12/04 07:15:20;;;;;;;119.13;15.98;;;;;;;;;;4981454;28;20054;-69
2022/12/04 07:17:46;;;;;;;31.88;13.52;;;;;;;;;;4981952;28;20054;-69
2022/12/04 07:20:11;;;;;;;57.40;14.50;;;;;;;;;;4996765;28;20054;-69
2022/12/04 07:22:37;;;;;;;65.05;15.38;;;;;;;;;;4982423;28;20050;-69
2022/12/04 07:25:02;;;;;;;63.22;14.25;;;;;;;;;;4982642;28;20058;-69
2022/12/04 07:27:30;;;;;;;28.45;12.93;;;;;;;;;;4980402;28;20953;-69
2022/12/04 07:29:55;;;;;;;33.50;12.60;;;;;;;;;;4981580;28;20149;-69
2022/12/04 07:32:20;;;;;;;29.67;12.13;;;;;;;;;;4981865;28;20068;-70
2022/12/04 07:34:46;;;;;;;31.55;14.02;;;;;;;;;;4997546;28;20109;-69
2022/12/04 07:37:11;;;;;;;30.42;13.95;;;;;;;;;;4976287;28;20062;-70
2022/12/04 07:39:37;;;;;;;37.88;14.48;;;;;;;;;;4981161;28;20180;-70
2022/12/04 07:42:02;;;;;;;32.80;13.23;;;;;;;;;;4981684;28;20046;-69
2022/12/04 07:44:31;;;;;;;27.23;12.88;;;;;;;;;;4982018;28;20034;-68
2022/12/04 07:46:56;;;;;;;26.08;13.48;;;;;;;;;;4980850;28;20120;-68
2022/12/04 07:49:22;;;;;;;26.13;13.23;;;;;;;;;;4978334;28;20042;-68
2022/12/04 07:51:47;;;;;;;31.33;13.38;;;;;;;;;;4979694;28;20093;-68
2022/12/04 07:54:12;;;;;;;27.02;12.38;;;;;;;;;;4981469;28;20046;-68
2022/12/04 07:56:38;;;;;;;32.83;12.90;;;;;;;;;;4980238;28;20042;-68
2022/12/04 07:59:03;;;;;;;28.15;11.63;;;;;;;;;;4980409;28;20115;-68
2022/12/04 08:01:29;;;;;;;28.67;12.60;;;;;;;;;;4977455;28;20053;-68
2022/12/04 08:03:57;;;;;;;24.42;10.68;;;;;;;;;;4980817;28;20050;-68
2022/12/04 08:06:23;;;;;;;24.05;11.65;;;;;;;;;;4980603;28;20495;-68
2022/12/04 08:08:49;;;;;;;35.75;14.60;;;;;;;;;;4995765;28;20181;-68
2022/12/04 08:11:17;;;;;;;48.17;13.70;;;;;;;;;;4978817;28;20411;-68
2022/12/04 08:13:43;;;;;;;33.25;12.77;;;;;;;;;;4980136;28;20093;-68
2022/12/04 08:16:10;;;;;;;22.88;11.68;;;;;;;;;;4995685;28;20053;-68
2022/12/04 08:18:36;;;;;;;32.80;11.98;;;;;;;;;;4980603;28;20053;-67
2022/12/04 08:21:04;;;;;;;27.40;12.50;;;;;;;;;;4979633;28;20055;-67
2022/12/04 08:23:30;;;;;;;28.40;12.45;;;;;;;;;;4980121;28;20054;-68
2022/12/04 08:25:58;;;;;;;20.55;10.73;;;;;;;;;;4980151;28;20106;-69
2022/12/04 08:28:23;;;;;;;22.95;9.73;;;;;;;;;;4980185;28;20062;-69
2022/12/04 08:30:49;;;;;;;22.52;10.60;;;;;;;;;;4980074;28;20046;-69
2022/12/04 08:33:14;;;;;;;22.23;10.63;;;;;;;;;;4978357;28;20120;-69
2022/12/04 08:35:40;;;;;;;23.80;11.35;;;;;;;;;;4979594;28;20128;-69
2022/12/04 08:38:05;;;;;;;22.67;11.20;;;;;;;;;;4978759;28;20050;-69
2022/12/04 08:40:32;;;;;;;22.42;11.30;;;;;;;;;;4980165;28;20077;-69
2022/12/04 08:42:57;;;;;;;26.55;12.55;;;;;;;;;;4977204;28;20053;-69
2022/12/04 08:45:23;;;;;;;25.70;12.13;;;;;;;;;;4978756;28;20046;-69
2022/12/04 08:47:48;;;;;;;23.70;11.48;;;;;;;;;;4979195;28;20042;-69
2022/12/04 08:50:14;;;;;;;26.00;12.18;;;;;;;;;;4979106;28;20046;-70
2022/12/04 08:52:39;;;;;;;25.42;12.90;;;;;;;;;;4978874;28;20166;-69
2022/12/04 08:55:05;;;;;;;29.95;14.27;;;;;;;;;;4978421;28;20403;-68
2022/12/04 08:57:31;;;;;;;32.22;13.88;;;;;;;;;;4978209;28;20081;-69
2022/12/04 08:59:56;;;;;;;68.20;14.98;;;;;;;;;;4979099;28;20133;-68
2022/12/04 09:02:21;;;;;;;45.28;14.35;;;;;;;;;;4979431;28;20049;-70
2022/12/04 09:04:47;;;;;;;41.20;14.55;;;;;;;;;;4979406;28;20042;-68
2022/12/04 09:07:12;;;;;;;61.50;12.30;;;;;;;;;;4978327;28;20050;-70
2022/12/04 09:09:38;;;;;;;37.25;14.15;;;;;;;;;;4979090;28;20144;-68
2022/12/04 09:12:03;;;;;;;32.00;12.25;;;;;;;;;;4977557;28;20461;-69
2022/12/04 09:14:29;;;;;;;29.02;13.13;;;;;;;;;;4975377;28;20086;-68
2022/12/04 09:16:54;;;;;;;32.55;12.77;;;;;;;;;;4975048;28;20061;-75
2022/12/04 09:19:20;;;;;;;24.83;12.27;;;;;;;;;;4978661;28;20046;-68
2022/12/04 09:21:46;;;;;;;28.38;13.90;;;;;;;;;;4978166;28;20042;-69
2022/12/04 09:24:12;;;;;;;29.13;12.23;;;;;;;;;;4978560;28;20157;-69
2022/12/04 09:26:37;;;;;;;23.70;11.38;;;;;;;;;;4978482;28;20100;-69
2022/12/04 09:29:04;;;;;;;27.55;11.98;;;;;;;;;;4977300;28;20598;-68
2022/12/04 09:31:30;;;;;;;33.15;13.65;;;;;;;;;;4978501;28;20050;-68
2022/12/04 09:34:00;;;;;;;26.48;12.00;;;;;;;;;;4978280;28;20057;-68
2022/12/04 09:36:25;;;;;;;24.88;12.40;;;;;;;;;;4978410;28;20050;-68
2022/12/04 09:38:52;;;;;;;24.30;12.05;;;;;;;;;;4977538;28;20870;-68
2022/12/04 09:41:23;;;;;;;26.33;12.68;;;;;;;;;;4977541;28;20139;-69
2022/12/04 09:43:56;;;;;;;29.63;13.03;;;;;;;;;;4978529;28;20077;-69
2022/12/04 09:46:36;;;;;;;28.98;13.60;;;;;;;;;;4976984;28;21181;-68
2022/12/04 09:49:16;;;;;;;31.10;14.13;;;;;;;;;;4977822;28;20054;-67
2022/12/04 09:51:43;;;;;;;52.53;24.75;;;;;;;;;;4976633;28;20050;-71
2022/12/04 09:54:16;;;;;;;30.88;12.52;;;;;;;;;;4978507;28;20054;-69
2022/12/04 09:56:49;;;;;;;26.98;12.52;;;;;;;;;;4977915;28;20034;-69
2022/12/04 09:59:25;;;;;;;31.98;14.15;;;;;;;;;;4977618;28;20054;-69
2022/12/04 10:02:11;;;;;;;35.75;13.68;;;;;;;;;;4974354;28;20116;-68
2022/12/04 10:04:36;;;;;;;29.65;10.80;;;;;;;;;;4966812;28;20053;-68
2022/12/04 10:07:20;;;;;;;22.33;11.25;;;;;;;;;;4975528;28;20054;-69
2022/12/04 10:10:01;;;;;;;47.65;11.25;;;;;;;;;;4978841;28;20050;-68
2022/12/04 10:12:30;;;;;;;31.17;13.63;;;;;;;;;;4991583;28;20085;-68
2022/12/04 10:15:05;;;;;;;29.70;12.05;;;;;;;;;;4977534;28;20057;-68
2022/12/04 10:17:36;;;;;;;51.03;12.93;;;;;;;;;;4977797;28;20066;-68
2022/12/04 10:20:36;;;;;;;43.83;14.03;;;;;;;;;;4976616;28;20043;-69
2022/12/04 10:23:01;;;;;;;41.80;15.07;;;;;;;;;;4985343;28;20297;-69
2022/12/04 10:25:28;;;;;;;30.83;14.07;;;;;;;;;;4978932;28;20089;-68
2022/12/04 10:28:05;;;;;;;58.53;8.75;;;;;;;;;;4977814;28;20058;-68
2022/12/04 10:30:34;;;;;;;24.38;11.27;;;;;;;;;;4982063;28;20148;-69
2022/12/04 10:33:13;;;;;;;29.27;10.98;;;;;;;;;;4982110;28;20042;-68
2022/12/04 10:35:42;;;;;;;24.27;13.23;;;;;;;;;;4982805;28;20046;-69
2022/12/04 10:38:38;;;;;;;66.47;14.63;;;;;;;;;;4982427;28;20526;-69
2022/12/04 10:41:12;;;;;;;88.93;12.32;;;;;;;;;;4980869;28;20068;-69
2022/12/04 10:43:48;;;;;;;40.60;14.90;;;;;;;;;;4982937;28;20074;-69
2022/12/04 10:46:23;;;;;;;33.65;13.07;;;;;;;;;;4981661;28;20042;-67
2022/12/04 10:48:54;;;;;;;40.45;17.48;;;;;;;;;;4982642;28;20072;-68
2022/12/04 10:51:21;;;;;;;26.65;13.48;;;;;;;;;;4981910;28;20113;-69
2022/12/04 10:53:48;;;;;;;32.22;15.23;;;;;;;;;;4982922;28;20057;-70
2022/12/04 10:56:23;;;;;;;43.67;19.00;;;;;;;;;;4982962;28;20050;-70
2022/12/04 10:59:00;;;;;;;30.80;14.63;;;;;;;;;;4981911;28;20057;-70
2022/12/04 11:01:28;;;;;;;33.88;16.10;;;;;;;;;;4972286;28;20128;-68
2022/12/04 11:04:08;;;;;;;44.83;15.02;;;;;;;;;;4981113;28;20653;-70
2022/12/04 11:06:34;;;;;;;29.98;14.05;;;;;;;;;;4977897;28;20050;-71
2022/12/04 11:09:01;;;;;;;33.08;17.40;;;;;;;;;;4977397;28;20042;-69
2022/12/04 11:11:32;;;;;;;45.25;15.25;;;;;;;;;;4969213;28;20140;-70
2022/12/04 11:14:17;;;;;;;33.37;14.63;;;;;;;;;;4980934;28;20050;-69
2022/12/04 11:16:47;;;;;;;30.02;13.07;;;;;;;;;;4980614;28;20034;-70
2022/12/04 11:19:24;;;;;;;42.67;15.07;;;;;;;;;;4980599;28;20505;-71
2022/12/04 11:21:51;;;;;;;30.58;14.27;;;;;;;;;;4979282;28;20054;-70
2022/12/04 11:24:25;;;;;;;29.65;13.63;;;;;;;;;;4982876;28;20089;-71
2022/12/04 11:26:51;;;;;;;31.10;15.82;;;;;;;;;;4983110;28;20098;-70
2022/12/04 11:29:20;;;;;;;26.83;14.38;;;;;;;;;;4981413;28;20061;-70
2022/12/04 11:31:51;;;;;;;33.15;14.75;;;;;;;;;;4981506;28;20136;-71
2022/12/04 11:34:20;;;;;;;30.40;15.27;;;;;;;;;;4982878;28;20049;-71
2022/12/04 11:36:52;;;;;;;35.85;18.05;;;;;;;;;;4975305;28;20049;-71
2022/12/04 11:39:21;;;;;;;36.47;14.80;;;;;;;;;;4980598;28;20079;-71
2022/12/04 11:41:46;;;;;;;31.35;15.95;;;;;;;;;;4980714;28;20046;-71
2022/12/04 11:44:32;;;;;;;37.08;17.27;;;;;;;;;;4981158;28;20042;-71
2022/12/04 11:47:01;;;;;;;26.55;14.07;;;;;;;;;;4980946;28;20039;-71
2022/12/04 11:49:28;;;;;;;25.17;14.13;;;;;;;;;;4982398;28;20096;-68
2022/12/04 11:51:59;;;;;;;22.98;12.52;;;;;;;;;;4981338;28;20136;-69
2022/12/04 11:54:36;;;;;;;27.83;15.70;;;;;;;;;;4980579;28;20479;-69
2022/12/04 11:57:25;;;;;;;29.73;15.43;;;;;;;;;;4981748;28;20060;-69
2022/12/04 11:59:51;;;;;;;28.05;13.95;;;;;;;;;;4981458;28;20045;-69
2022/12/04 12:02:54;;;;;;;27.85;15.18;;;;;;;;;;4981249;28;20045;-69
2022/12/04 12:05:41;;;;;;;24.80;13.32;;;;;;;;;;4981972;28;20042;-68
2022/12/04 12:08:22;;;;;;;23.15;12.73;;;;;;;;;;4994356;28;20108;-67
2022/12/04 12:11:19;;;;;;;25.15;13.45;;;;;;;;;;4995499;28;20046;-67
2022/12/04 12:14:00;;;;;;;20.10;12.00;;;;;;;;;;4940838;28;20042;-68
2022/12/04 12:16:28;;;;;;;25.50;13.30;;;;;;;;;;4979135;28;20054;-68
2022/12/04 12:19:13;;;;;;;54.90;24.65;;;;;;;;;;4978884;28;20057;-67
2022/12/04 12:21:57;;;;;;;54.17;23.55;;;;;;;;;;4977509;28;20042;-67
2022/12/04 12:24:30;;;;;;;39.35;18.27;;;;;;;;;;4979463;28;20050;-68
2022/12/04 12:27:05;;;;;;;44.70;20.33;;;;;;;;;;4981070;28;20046;-67
2022/12/04 12:29:45;;;;;;;31.65;14.80;;;;;;;;;;4977384;28;20072;-68
2022/12/04 12:32:39;;;;;;;135.20;46.10;;;;;;;;;;4979759;28;20047;-67
2022/12/04 12:35:18;;;;;;;40.60;19.42;;;;;;;;;;4978312;28;20141;-67
2022/12/04 12:37:51;;;;;;;29.75;15.18;;;;;;;;;;4979864;28;20061;-68
2022/12/04 12:40:32;;;;;;;39.28;18.88;;;;;;;;;;4980487;28;20046;-69
2022/12/04 12:43:11;;;;;;;41.03;19.75;;;;;;;;;;4993950;28;20145;-68
2022/12/04 12:46:19;;;;;;;35.72;17.50;;;;;;;;;;4979373;28;20085;-68
2022/12/04 12:48:50;;;;;;;29.75;14.13;;;;;;;;;;4938743;28;20083;-69
2022/12/04 12:51:24;;;;;;;27.90;14.68;;;;;;;;;;4938595;28;20039;-69
2022/12/04 12:53:52;;;;;;;31.13;14.73;;;;;;;;;;4963574;28;20184;-69
2022/12/04 12:56:21;;;;;;;30.65;15.65;;;;;;;;;;4980181;28;20491;-69
2022/12/04 12:58:56;;;;;;;28.38;13.85;;;;;;;;;;4980543;28;20068;-68
2022/12/04 13:01:31;;;;;;;27.92;15.35;;;;;;;;;;4979227;28;20226;-69
2022/12/04 13:04:09;;;;;;;32.83;15.75;;;;;;;;;;4980854;28;20453;-68
2022/12/04 13:06:41;;;;;;;27.25;14.18;;;;;;;;;;4976834;28;21300;-69
2022/12/04 13:09:26;;;;;;;27.83;14.20;;;;;;;;;;4977272;28;20415;-69
2022/12/04 13:12:05;;;;;;;29.65;14.85;;;;;;;;;;4979134;28;20100;-69
2022/12/04 13:14:30;;;;;;;25.17;13.70;;;;;;;;;;4980403;28;20046;-69
2022/12/04 13:17:03;;;;;;;26.40;13.55;;;;;;;;;;4979753;28;20057;-68
2022/12/04 13:19:42;;;;;;;22.83;13.07;;;;;;;;;;4970170;28;20046;-67
2022/12/04 13:22:13;;;;;;;26.38;13.82;;;;;;;;;;4979638;28;20124;-67
2022/12/04 13:25:06;;;;;;;27.33;14.60;;;;;;;;;;4979458;28;20046;-67
2022/12/04 13:27:53;;;;;;;27.90;14.40;;;;;;;;;;4993719;28;20145;-68
2022/12/04 13:30:22;;;;;;;28.05;15.13;;;;;;;;;;4978946;28;20136;-68
2022/12/04 13:33:10;;;;;;;31.25;15.63;;;;;;;;;;4979461;28;20042;-69
2022/12/04 13:35:51;;;;;;;33.63;15.68;;;;;;;;;;4977916;28;20084;-70
2022/12/04 13:38:22;;;;;;;32.83;16.35;;;;;;;;;;4980509;28;20046;-68
2022/12/04 13:41:01;;;;;;;30.33;15.75;;;;;;;;;;4979033;28;20093;-68
2022/12/04 13:43:35;;;;;;;26.80;13.05;;;;;;;;;;4979381;28;20042;-68
2022/12/04 13:46:07;;;;;;;27.63;14.40;;;;;;;;;;4977847;28;20065;-67
2022/12/04 13:48:41;;;;;;;27.30;13.82;;;;;;;;;;4980599;28;20046;-68
2022/12/04 13:51:12;;;;;;;27.40;13.30;;;;;;;;;;4977770;28;20209;-68
2022/12/04 13:53:39;;;;;;;26.13;12.68;;;;;;;;;;4979945;28;20042;-67
2022/12/04 13:56:06;;;;;;;26.35;13.32;;;;;;;;;;4977114;28;20046;-68
2022/12/04 13:58:34;;;;;;;20.67;8.60;;;;;;;;;;4979670;28;20084;-67
2022/12/04 14:01:05;;;;;;;24.20;12.32;;;;;;;;;;4978358;28;20447;-68
2022/12/04 14:03:43;;;;;;;28.55;13.20;;;;;;;;;;4978851;28;20061;-67
2022/12/04 14:06:22;;;;;;;26.27;13.35;;;;;;;;;;4975235;28;20042;-68
2022/12/04 14:08:54;;;;;;;35.28;13.30;;;;;;;;;;4978400;28;20490;-67
2022/12/04 14:11:20;;;;;;;28.50;13.27;;;;;;;;;;4974341;28;20484;-66
2022/12/04 14:13:55;;;;;;;18.98;9.88;;;;;;;;;;4975739;28;20034;-67
2022/12/04 14:16:34;;;;;;;31.83;13.73;;;;;;;;;;4977559;28;20688;-67
2022/12/04 14:19:01;;;;;;;25.45;12.27;;;;;;;;;;4978380;28;20039;-67
2022/12/04 14:21:45;;;;;;;30.58;13.82;;;;;;;;;;4977848;28;20072;-67
2022/12/04 14:24:38;;;;;;;28.13;10.80;;;;;;;;;;4978504;28;20108;-67
2022/12/04 14:27:33;;;;;;;25.38;12.32;;;;;;;;;;4973790;28;20073;-67
2022/12/04 14:29:59;;;;;;;22.58;11.10;;;;;;;;;;4978021;28;20069;-67
2022/12/04 14:32:30;;;;;;;9.52;4.35;;;;;;;;;;4979456;28;20578;-67
2022/12/04 14:34:56;;;;;;;28.40;11.43;;;;;;;;;;4980871;28;20138;-67
2022/12/04 14:37:35;;;;;;;23.00;10.98;;;;;;;;;;4979318;28;20372;-67
2022/12/04 14:40:03;;;;;;;29.67;13.57;;;;;;;;;;4980554;28;20042;-67
2022/12/04 14:42:36;;;;;;;27.27;12.25;;;;;;;;;;4980443;28;20157;-67
2022/12/04 14:45:04;;;;;;;28.00;13.65;;;;;;;;;;4979890;28;20042;-68
2022/12/04 14:47:45;;;;;;;35.30;14.23;;;;;;;;;;4979725;28;20176;-68